sensor_id;sensor_type;location;lat;lon;timestamp;P1;durP1;ratioP1;P2;durP2;ratioP2
20179;SDS011;10249;48.900;9.090;2022-12-13T00:00:03;12.00;;;11.60;;
20179;SDS011;10249;48.900;9.090;2022-12-13T00:02:32;12.30;;;11.90;;
20179;SDS011;10249;48.900;9.090;2022-12-13T00:04:59;12.20;;;11.80;;
20179;SDS011;10249;48.900;9.090;2022-12-13T00:07:26;12.10;;;11.70;;
20179;SDS011;10249;48.900;9.090;2022-12-13T00:09:55;12.03;;;11.63;;
20179;SDS011;10249;48.900;9.090;2022-12-13T00:12:22;12.10;;;11.70;;
20179;SDS011;10249;48.900;9.090;2022-12-13T00:14:49;12.10;;;11.70;;
20179;SDS011;10249;48.900;9.090;2022-12-13T00:17:16;12.63;;;12.17;;
20179;SDS011;10249;48.900;9.090;2022-12-13T00:19:43;12.10;;;11.70;;
20179;SDS011;10249;48.900;9.090;2022-12-13T00:22:10;11.97;;;11.57;;
20179;SDS011;10249;48.900;9.090;2022-12-13T00:24:37;12.87;;;12.37;;
20179;SDS011;10249;48.900;9.090;2022-12-13T00:27:06;11.97;;;11.57;;
20179;SDS011;10249;48.900;9.090;2022-12-13T00:29:33;12.47;;;12.07;;
20179;SDS011;10249;48.900;9.090;2022-12-13T00:32:00;13.23;;;12.73;;
20179;SDS011;10249;48.900;9.090;2022-12-13T00:34:27;12.07;;;11.67;;
20179;SDS011;10249;48.900;9.090;2022-12-13T00:36:55;12.00;;;11.60;;
20179;SDS011;10249;48.900;9.090;2022-12-13T00:39:23;11.90;;;11.50;;
20179;SDS011;10249;48.900;9.090;2022-12-13T00:41:50;12.10;;;11.70;;
20179;SDS011;10249;48.900;9.090;2022-12-13T00:44:19;12.17;;;11.77;;
20179;SDS011;10249;48.900;9.090;2022-12-13T00:46:46;12.30;;;11.90;;
20179;SDS011;10249;48.900;9.090;2022-12-13T00:49:15;12.00;;;11.60;;
20179;SDS011;10249;48.900;9.090;2022-12-13T00:51:42;12.10;;;11.70;;
20179;SDS011;10249;48.900;9.090;2022-12-13T00:54:09;11.93;;;11.53;;
20179;SDS011;10249;48.900;9.090;2022-12-13T00:56:37;12.27;;;11.83;;
20179;SDS011;10249;48.900;9.090;2022-12-13T00:59:04;12.67;;;12.17;;
20179;SDS011;10249;48.900;9.090;2022-12-13T01:01:33;13.33;;;12.83;;
20179;SDS011;10249;48.900;9.090;2022-12-13T01:04:02;12.90;;;12.40;;
20179;SDS011;10249;48.900;9.090;2022-12-13T01:06:30;12.07;;;11.67;;
20179;SDS011;10249;48.900;9.090;2022-12-13T01:08:59;12.30;;;11.80;;
20179;SDS011;10249;48.900;9.090;2022-12-13T01:11:26;12.10;;;11.70;;
20179;SDS011;10249;48.900;9.090;2022-12-13T01:13:53;12.47;;;11.97;;
20179;SDS011;10249;48.900;9.090;2022-12-13T01:16:20;12.73;;;12.23;;
20179;SDS011;10249;48.900;9.090;2022-12-13T01:18:49;13.10;;;12.60;;
20179;SDS011;10249;48.900;9.090;2022-12-13T01:21:16;12.47;;;12.00;;
20179;SDS011;10249;48.900;9.090;2022-12-13T01:23:44;12.37;;;11.87;;
20179;SDS011;10249;48.900;9.090;2022-12-13T01:26:12;12.43;;;11.93;;
20179;SDS011;10249;48.900;9.090;2022-12-13T01:28:39;12.17;;;11.77;;
20179;SDS011;10249;48.900;9.090;2022-12-13T01:31:08;11.93;;;11.53;;
20179;SDS011;10249;48.900;9.090;2022-12-13T01:33:36;12.17;;;11.77;;
20179;SDS011;10249;48.900;9.090;2022-12-13T01:36:05;14.30;;;13.57;;
20179;SDS011;10249;48.900;9.090;2022-12-13T01:38:33;12.20;;;11.80;;
20179;SDS011;10249;48.900;9.090;2022-12-13T01:41:01;12.40;;;11.90;;
20179;SDS011;10249;48.900;9.090;2022-12-13T01:43:29;12.20;;;11.80;;
20179;SDS011;10249;48.900;9.090;2022-12-13T01:46:14;12.60;;;12.10;;
20179;SDS011;10249;48.900;9.090;2022-12-13T01:48:43;12.60;;;12.10;;
20179;SDS011;10249;48.900;9.090;2022-12-13T01:51:14;13.03;;;12.53;;
20179;SDS011;10249;48.900;9.090;2022-12-13T01:53:42;12.80;;;12.30;;
20179;SDS011;10249;48.900;9.090;2022-12-13T01:56:11;12.57;;;12.07;;
20179;SDS011;10249;48.900;9.090;2022-12-13T01:58:41;13.63;;;13.03;;
20179;SDS011;10249;48.900;9.090;2022-12-13T02:01:08;13.00;;;12.50;;
20179;SDS011;10249;48.900;9.090;2022-12-13T02:03:35;12.40;;;11.90;;
20179;SDS011;10249;48.900;9.090;2022-12-13T02:06:04;12.37;;;11.87;;
20179;SDS011;10249;48.900;9.090;2022-12-13T02:08:33;13.50;;;12.97;;
20179;SDS011;10249;48.900;9.090;2022-12-13T02:11:00;12.53;;;12.03;;
20179;SDS011;10249;48.900;9.090;2022-12-13T02:13:28;12.33;;;11.87;;
20179;SDS011;10249;48.900;9.090;2022-12-13T02:15:56;12.23;;;11.83;;
20179;SDS011;10249;48.900;9.090;2022-12-13T02:18:34;13.93;;;13.40;;
20179;SDS011;10249;48.900;9.090;2022-12-13T02:21:20;12.50;;;12.00;;
20179;SDS011;10249;48.900;9.090;2022-12-13T02:26:49;13.80;;;13.10;;
20179;SDS011;10249;48.900;9.090;2022-12-13T02:32:12;12.20;;;11.80;;
20179;SDS011;10249;48.900;9.090;2022-12-13T02:34:43;15.00;;;14.40;;
20179;SDS011;10249;48.900;9.090;2022-12-13T02:37:13;12.80;;;12.30;;
20179;SDS011;10249;48.900;9.090;2022-12-13T02:39:46;12.43;;;11.93;;
20179;SDS011;10249;48.900;9.090;2022-12-13T02:42:15;13.00;;;12.50;;
20179;SDS011;10249;48.900;9.090;2022-12-13T02:44:46;12.30;;;11.80;;
20179;SDS011;10249;48.900;9.090;2022-12-13T02:47:16;12.23;;;11.80;;
20179;SDS011;10249;48.900;9.090;2022-12-13T02:49:46;12.30;;;11.80;;
20179;SDS011;10249;48.900;9.090;2022-12-13T02:52:14;12.53;;;12.03;;
20179;SDS011;10249;48.900;9.090;2022-12-13T02:54:42;13.03;;;12.53;;
20179;SDS011;10249;48.900;9.090;2022-12-13T02:59:51;13.00;;;12.50;;
20179;SDS011;10249;48.900;9.090;2022-12-13T03:02:21;12.90;;;12.40;;
20179;SDS011;10249;48.900;9.090;2022-12-13T03:04:51;13.20;;;12.70;;
20179;SDS011;10249;48.900;9.090;2022-12-13T03:07:41;12.60;;;12.10;;
20179;SDS011;10249;48.900;9.090;2022-12-13T03:10:13;12.90;;;12.40;;
20179;SDS011;10249;48.900;9.090;2022-12-13T03:12:44;12.57;;;12.07;;
20179;SDS011;10249;48.900;9.090;2022-12-13T03:15:31;13.57;;;13.07;;
20179;SDS011;10249;48.900;9.090;2022-12-13T03:18:01;13.47;;;12.97;;
20179;SDS011;10249;48.900;9.090;2022-12-13T03:20:30;13.77;;;13.23;;
20179;SDS011;10249;48.900;9.090;2022-12-13T03:22:57;12.80;;;12.30;;
20179;SDS011;10249;48.900;9.090;2022-12-13T03:25:26;12.80;;;12.30;;
20179;SDS011;10249;48.900;9.090;2022-12-13T03:27:53;13.57;;;13.07;;
20179;SDS011;10249;48.900;9.090;2022-12-13T03:30:20;14.10;;;13.40;;
20179;SDS011;10249;48.900;9.090;2022-12-13T03:32:47;13.30;;;12.80;;
20179;SDS011;10249;48.900;9.090;2022-12-13T03:35:16;12.77;;;12.27;;
20179;SDS011;10249;48.900;9.090;2022-12-13T03:37:43;13.07;;;12.57;;
20179;SDS011;10249;48.900;9.090;2022-12-13T03:40:11;13.70;;;13.20;;
20179;SDS011;10249;48.900;9.090;2022-12-13T03:42:38;13.50;;;13.00;;
20179;SDS011;10249;48.900;9.090;2022-12-13T03:45:05;13.33;;;12.83;;
20179;SDS011;10249;48.900;9.090;2022-12-13T03:47:32;14.60;;;13.90;;
20179;SDS011;10249;48.900;9.090;2022-12-13T03:49:59;16.43;;;15.83;;
20179;SDS011;10249;48.900;9.090;2022-12-13T03:52:28;13.07;;;12.57;;
20179;SDS011;10249;48.900;9.090;2022-12-13T03:54:55;12.87;;;12.37;;
20179;SDS011;10249;48.900;9.090;2022-12-13T03:57:22;12.83;;;12.33;;
20179;SDS011;10249;48.900;9.090;2022-12-13T03:59:49;13.20;;;12.70;;
20179;SDS011;10249;48.900;9.090;2022-12-13T04:02:16;13.60;;;13.10;;
20179;SDS011;10249;48.900;9.090;2022-12-13T04:04:43;13.60;;;13.10;;
20179;SDS011;10249;48.900;9.090;2022-12-13T04:07:10;13.57;;;13.07;;
20179;SDS011;10249;48.900;9.090;2022-12-13T04:09:39;13.27;;;12.77;;
20179;SDS011;10249;48.900;9.090;2022-12-13T04:12:06;13.40;;;12.90;;
20179;SDS011;10249;48.900;9.090;2022-12-13T04:14:50;14.07;;;13.57;;
20179;SDS011;10249;48.900;9.090;2022-12-13T04:17:18;13.10;;;12.60;;
20179;SDS011;10249;48.900;9.090;2022-12-13T04:19:45;13.30;;;12.80;;
20179;SDS011;10249;48.900;9.090;2022-12-13T04:22:12;13.83;;;13.33;;
20179;SDS011;10249;48.900;9.090;2022-12-13T04:24:40;13.60;;;13.10;;
20179;SDS011;10249;48.900;9.090;2022-12-13T04:27:07;13.40;;;12.90;;
20179;SDS011;10249;48.900;9.090;2022-12-13T04:29:34;13.33;;;12.83;;
20179;SDS011;10249;48.900;9.090;2022-12-13T04:32:02;13.80;;;13.30;;
20179;SDS011;10249;48.900;9.090;2022-12-13T04:34:29;13.50;;;13.00;;
20179;SDS011;10249;48.900;9.090;2022-12-13T04:36:56;12.90;;;12.40;;
20179;SDS011;10249;48.900;9.090;2022-12-13T04:39:23;14.13;;;13.63;;
20179;SDS011;10249;48.900;9.090;2022-12-13T04:41:52;14.40;;;13.90;;
20179;SDS011;10249;48.900;9.090;2022-12-13T04:44:19;13.10;;;12.60;;
20179;SDS011;10249;48.900;9.090;2022-12-13T04:46:46;12.90;;;12.40;;
20179;SDS011;10249;48.900;9.090;2022-12-13T04:49:13;13.00;;;12.50;;
20179;SDS011;10249;48.900;9.090;2022-12-13T04:51:40;13.13;;;12.63;;
20179;SDS011;10249;48.900;9.090;2022-12-13T04:54:07;14.27;;;13.77;;
20179;SDS011;10249;48.900;9.090;2022-12-13T04:56:34;13.00;;;12.50;;
20179;SDS011;10249;48.900;9.090;2022-12-13T04:59:04;13.00;;;12.50;;
20179;SDS011;10249;48.900;9.090;2022-12-13T05:01:31;13.20;;;12.70;;
20179;SDS011;10249;48.900;9.090;2022-12-13T05:04:00;13.27;;;12.77;;
20179;SDS011;10249;48.900;9.090;2022-12-13T05:06:28;13.20;;;12.70;;
20179;SDS011;10249;48.900;9.090;2022-12-13T05:08:55;13.10;;;12.60;;
20179;SDS011;10249;48.900;9.090;2022-12-13T05:11:22;13.10;;;12.60;;
20179;SDS011;10249;48.900;9.090;2022-12-13T05:13:49;13.40;;;12.90;;
20179;SDS011;10249;48.900;9.090;2022-12-13T05:16:18;13.50;;;13.00;;
20179;SDS011;10249;48.900;9.090;2022-12-13T05:18:45;13.20;;;12.70;;
20179;SDS011;10249;48.900;9.090;2022-12-13T05:21:12;13.87;;;13.37;;
20179;SDS011;10249;48.900;9.090;2022-12-13T05:23:39;13.50;;;13.00;;
20179;SDS011;10249;48.900;9.090;2022-12-13T05:26:06;13.30;;;12.80;;
20179;SDS011;10249;48.900;9.090;2022-12-13T05:28:33;13.90;;;13.40;;
20179;SDS011;10249;48.900;9.090;2022-12-13T05:31:04;14.47;;;13.97;;
20179;SDS011;10249;48.900;9.090;2022-12-13T05:33:33;13.90;;;13.40;;
20179;SDS011;10249;48.900;9.090;2022-12-13T05:36:00;13.90;;;13.40;;
20179;SDS011;10249;48.900;9.090;2022-12-13T05:38:27;14.27;;;13.67;;
20179;SDS011;10249;48.900;9.090;2022-12-13T05:40:55;13.50;;;13.00;;
20179;SDS011;10249;48.900;9.090;2022-12-13T05:43:22;13.57;;;13.07;;
20179;SDS011;10249;48.900;9.090;2022-12-13T05:45:49;13.23;;;12.73;;
20179;SDS011;10249;48.900;9.090;2022-12-13T05:48:16;13.50;;;13.00;;
20179;SDS011;10249;48.900;9.090;2022-12-13T05:50:44;13.70;;;13.20;;
20179;SDS011;10249;48.900;9.090;2022-12-13T05:53:11;13.43;;;12.93;;
20179;SDS011;10249;48.900;9.090;2022-12-13T05:55:39;15.33;;;14.73;;
20179;SDS011;10249;48.900;9.090;2022-12-13T05:58:07;13.83;;;13.33;;
20179;SDS011;10249;48.900;9.090;2022-12-13T06:00:37;14.00;;;13.50;;
20179;SDS011;10249;48.900;9.090;2022-12-13T06:03:04;13.70;;;13.20;;
20179;SDS011;10249;48.900;9.090;2022-12-13T06:05:31;13.93;;;13.43;;
20179;SDS011;10249;48.900;9.090;2022-12-13T06:07:59;19.27;;;17.80;;
20179;SDS011;10249;48.900;9.090;2022-12-13T06:10:27;13.17;;;12.67;;
20179;SDS011;10249;48.900;9.090;2022-12-13T06:12:54;13.50;;;13.00;;
20179;SDS011;10249;48.900;9.090;2022-12-13T06:15:21;14.93;;;14.43;;
20179;SDS011;10249;48.900;9.090;2022-12-13T06:17:48;13.70;;;13.20;;
20179;SDS011;10249;48.900;9.090;2022-12-13T06:20:15;13.40;;;12.90;;
20179;SDS011;10249;48.900;9.090;2022-12-13T06:22:42;13.57;;;13.07;;
20179;SDS011;10249;48.900;9.090;2022-12-13T06:25:11;13.40;;;12.90;;
20179;SDS011;10249;48.900;9.090;2022-12-13T06:27:38;14.30;;;13.80;;
20179;SDS011;10249;48.900;9.090;2022-12-13T06:30:06;13.10;;;12.60;;
20179;SDS011;10249;48.900;9.090;2022-12-13T06:32:33;13.40;;;12.90;;
20179;SDS011;10249;48.900;9.090;2022-12-13T06:35:00;13.10;;;12.60;;
20179;SDS011;10249;48.900;9.090;2022-12-13T06:37:27;15.67;;;15.13;;
20179;SDS011;10249;48.900;9.090;2022-12-13T06:39:54;13.40;;;12.90;;
20179;SDS011;10249;48.900;9.090;2022-12-13T06:42:23;13.40;;;12.90;;
20179;SDS011;10249;48.900;9.090;2022-12-13T06:44:50;13.40;;;12.90;;
20179;SDS011;10249;48.900;9.090;2022-12-13T06:47:17;13.60;;;13.10;;
20179;SDS011;10249;48.900;9.090;2022-12-13T06:49:44;13.70;;;13.20;;
20179;SDS011;10249;48.900;9.090;2022-12-13T06:52:11;13.70;;;13.20;;
20179;SDS011;10249;48.900;9.090;2022-12-13T06:54:39;13.20;;;12.70;;
20179;SDS011;10249;48.900;9.090;2022-12-13T06:57:06;13.87;;;13.37;;
20179;SDS011;10249;48.900;9.090;2022-12-13T06:59:35;13.00;;;12.50;;
20179;SDS011;10249;48.900;9.090;2022-12-13T07:02:02;13.67;;;13.17;;
20179;SDS011;10249;48.900;9.090;2022-12-13T07:04:29;13.20;;;12.70;;
20179;SDS011;10249;48.900;9.090;2022-12-13T07:06:56;13.07;;;12.57;;
20179;SDS011;10249;48.900;9.090;2022-12-13T07:09:23;13.80;;;13.30;;
20179;SDS011;10249;48.900;9.090;2022-12-13T07:11:50;13.50;;;13.00;;
20179;SDS011;10249;48.900;9.090;2022-12-13T07:14:17;14.20;;;13.70;;
20179;SDS011;10249;48.900;9.090;2022-12-13T07:16:45;13.90;;;13.40;;
20179;SDS011;10249;48.900;9.090;2022-12-13T07:19:12;14.20;;;13.70;;
20179;SDS011;10249;48.900;9.090;2022-12-13T07:21:39;13.40;;;12.90;;
20179;SDS011;10249;48.900;9.090;2022-12-13T07:24:07;13.60;;;13.10;;
20179;SDS011;10249;48.900;9.090;2022-12-13T07:26:34;14.00;;;13.50;;
20179;SDS011;10249;48.900;9.090;2022-12-13T07:29:02;14.37;;;13.87;;
20179;SDS011;10249;48.900;9.090;2022-12-13T07:31:29;15.00;;;14.40;;
20179;SDS011;10249;48.900;9.090;2022-12-13T07:33:57;13.80;;;13.30;;
20179;SDS011;10249;48.900;9.090;2022-12-13T07:36:25;13.80;;;13.30;;
20179;SDS011;10249;48.900;9.090;2022-12-13T07:38:52;13.70;;;13.20;;
20179;SDS011;10249;48.900;9.090;2022-12-13T07:41:19;13.70;;;13.20;;
20179;SDS011;10249;48.900;9.090;2022-12-13T07:43:46;14.00;;;13.50;;
20179;SDS011;10249;48.900;9.090;2022-12-13T07:46:13;13.50;;;13.00;;
20179;SDS011;10249;48.900;9.090;2022-12-13T07:48:41;13.23;;;12.73;;
20179;SDS011;10249;48.900;9.090;2022-12-13T07:51:09;13.50;;;13.00;;
20179;SDS011;10249;48.900;9.090;2022-12-13T07:53:38;13.30;;;12.80;;
20179;SDS011;10249;48.900;9.090;2022-12-13T07:56:06;13.70;;;13.20;;
20179;SDS011;10249;48.900;9.090;2022-12-13T07:58:33;13.80;;;13.30;;
20179;SDS011;10249;48.900;9.090;2022-12-13T08:01:01;13.63;;;13.13;;
20179;SDS011;10249;48.900;9.090;2022-12-13T08:03:28;13.73;;;13.23;;
20179;SDS011;10249;48.900;9.090;2022-12-13T08:05:59;22.23;;;21.33;;
20179;SDS011;10249;48.900;9.090;2022-12-13T08:08:28;14.30;;;13.80;;
20179;SDS011;10249;48.900;9.090;2022-12-13T08:10:58;14.50;;;13.90;;
20179;SDS011;10249;48.900;9.090;2022-12-13T08:13:26;14.30;;;13.80;;
20179;SDS011;10249;48.900;9.090;2022-12-13T08:15:56;14.70;;;14.10;;
20179;SDS011;10249;48.900;9.090;2022-12-13T08:18:23;13.93;;;13.43;;
20179;SDS011;10249;48.900;9.090;2022-12-13T08:20:50;17.63;;;16.15;;
20179;SDS011;10249;48.900;9.090;2022-12-13T08:23:17;14.40;;;13.80;;
20179;SDS011;10249;48.900;9.090;2022-12-13T08:25:50;14.80;;;14.20;;
20179;SDS011;10249;48.900;9.090;2022-12-13T08:28:17;16.43;;;15.53;;
20179;SDS011;10249;48.900;9.090;2022-12-13T08:30:44;14.83;;;14.23;;
20179;SDS011;10249;48.900;9.090;2022-12-13T08:33:11;14.77;;;14.17;;
20179;SDS011;10249;48.900;9.090;2022-12-13T08:35:38;15.77;;;15.07;;
20179;SDS011;10249;48.900;9.090;2022-12-13T08:38:06;14.80;;;14.20;;
20179;SDS011;10249;48.900;9.090;2022-12-13T08:40:33;14.37;;;13.77;;
20179;SDS011;10249;48.900;9.090;2022-12-13T08:43:01;14.63;;;14.03;;
20179;SDS011;10249;48.900;9.090;2022-12-13T08:45:29;14.67;;;14.07;;
20179;SDS011;10249;48.900;9.090;2022-12-13T08:47:58;14.80;;;14.20;;
20179;SDS011;10249;48.900;9.090;2022-12-13T08:50:25;14.97;;;14.37;;
20179;SDS011;10249;48.900;9.090;2022-12-13T08:52:52;14.80;;;14.20;;
20179;SDS011;10249;48.900;9.090;2022-12-13T08:55:19;14.80;;;14.20;;
20179;SDS011;10249;48.900;9.090;2022-12-13T08:57:46;15.90;;;15.20;;
20179;SDS011;10249;48.900;9.090;2022-12-13T09:00:15;15.30;;;14.70;;
20179;SDS011;10249;48.900;9.090;2022-12-13T09:02:43;14.60;;;14.00;;
20179;SDS011;10249;48.900;9.090;2022-12-13T09:05:11;14.70;;;14.10;;
20179;SDS011;10249;48.900;9.090;2022-12-13T09:07:38;14.70;;;14.10;;
20179;SDS011;10249;48.900;9.090;2022-12-13T09:10:06;14.63;;;14.03;;
20179;SDS011;10249;48.900;9.090;2022-12-13T09:12:33;14.60;;;14.00;;
20179;SDS011;10249;48.900;9.090;2022-12-13T09:15:00;14.70;;;14.10;;
20179;SDS011;10249;48.900;9.090;2022-12-13T09:17:30;15.30;;;14.70;;
20179;SDS011;10249;48.900;9.090;2022-12-13T09:19:57;14.90;;;14.30;;
20179;SDS011;10249;48.900;9.090;2022-12-13T09:22:24;14.60;;;14.00;;
20179;SDS011;10249;48.900;9.090;2022-12-13T09:24:52;15.20;;;14.60;;
20179;SDS011;10249;48.900;9.090;2022-12-13T09:27:19;15.10;;;14.50;;
20179;SDS011;10249;48.900;9.090;2022-12-13T09:29:46;15.53;;;14.93;;
20179;SDS011;10249;48.900;9.090;2022-12-13T09:32:13;15.37;;;14.67;;
20179;SDS011;10249;48.900;9.090;2022-12-13T09:34:41;15.87;;;15.17;;
20179;SDS011;10249;48.900;9.090;2022-12-13T09:37:09;16.00;;;15.30;;
20179;SDS011;10249;48.900;9.090;2022-12-13T09:39:37;15.90;;;15.20;;
20179;SDS011;10249;48.900;9.090;2022-12-13T09:42:04;19.03;;;18.03;;
20179;SDS011;10249;48.900;9.090;2022-12-13T09:44:37;16.40;;;15.70;;
20179;SDS011;10249;48.900;9.090;2022-12-13T09:47:06;17.60;;;16.37;;
20179;SDS011;10249;48.900;9.090;2022-12-13T09:49:39;15.80;;;15.10;;
20179;SDS011;10249;48.900;9.090;2022-12-13T09:52:11;18.33;;;17.40;;
20179;SDS011;10249;48.900;9.090;2022-12-13T09:54:39;16.13;;;15.43;;
20179;SDS011;10249;48.900;9.090;2022-12-13T09:57:08;15.80;;;15.10;;
20179;SDS011;10249;48.900;9.090;2022-12-13T09:59:41;19.80;;;18.83;;
20179;SDS011;10249;48.900;9.090;2022-12-13T10:02:13;16.10;;;15.40;;
20179;SDS011;10249;48.900;9.090;2022-12-13T10:04:41;17.23;;;16.53;;
20179;SDS011;10249;48.900;9.090;2022-12-13T10:07:10;17.43;;;16.73;;
20179;SDS011;10249;48.900;9.090;2022-12-13T10:09:41;17.30;;;16.40;;
20179;SDS011;10249;48.900;9.090;2022-12-13T10:12:08;17.80;;;17.10;;
20179;SDS011;10249;48.900;9.090;2022-12-13T10:14:38;16.20;;;15.50;;
20179;SDS011;10249;48.900;9.090;2022-12-13T10:17:07;16.53;;;15.83;;
20179;SDS011;10249;48.900;9.090;2022-12-13T10:19:35;17.23;;;16.53;;
20179;SDS011;10249;48.900;9.090;2022-12-13T10:22:05;17.80;;;17.00;;
20179;SDS011;10249;48.900;9.090;2022-12-13T10:24:47;18.27;;;17.37;;
20179;SDS011;10249;48.900;9.090;2022-12-13T10:27:16;15.90;;;15.30;;
20179;SDS011;10249;48.900;9.090;2022-12-13T10:30:00;16.53;;;15.83;;
20179;SDS011;10249;48.900;9.090;2022-12-13T10:32:29;15.80;;;15.20;;
20179;SDS011;10249;48.900;9.090;2022-12-13T10:34:58;17.30;;;16.50;;
20179;SDS011;10249;48.900;9.090;2022-12-13T10:37:25;17.17;;;16.17;;
20179;SDS011;10249;48.900;9.090;2022-12-13T10:39:54;16.67;;;15.97;;
20179;SDS011;10249;48.900;9.090;2022-12-13T10:42:22;15.97;;;15.27;;
20179;SDS011;10249;48.900;9.090;2022-12-13T10:45:04;15.97;;;15.27;;
20179;SDS011;10249;48.900;9.090;2022-12-13T10:47:34;18.07;;;17.00;;
20179;SDS011;10249;48.900;9.090;2022-12-13T10:50:02;16.97;;;16.17;;
20179;SDS011;10249;48.900;9.090;2022-12-13T10:52:30;16.17;;;15.37;;
20179;SDS011;10249;48.900;9.090;2022-12-13T10:55:00;15.50;;;14.90;;
20179;SDS011;10249;48.900;9.090;2022-12-13T10:57:28;15.80;;;15.10;;
20179;SDS011;10249;48.900;9.090;2022-12-13T10:59:56;16.67;;;15.93;;
20179;SDS011;10249;48.900;9.090;2022-12-13T11:02:27;15.40;;;14.80;;
20179;SDS011;10249;48.900;9.090;2022-12-13T11:04:55;16.80;;;16.10;;
20179;SDS011;10249;48.900;9.090;2022-12-13T11:07:23;14.80;;;14.20;;
20179;SDS011;10249;48.900;9.090;2022-12-13T11:09:51;15.73;;;15.03;;
20179;SDS011;10249;48.900;9.090;2022-12-13T11:12:20;14.83;;;14.23;;
20179;SDS011;10249;48.900;9.090;2022-12-13T11:14:48;14.90;;;14.20;;
20179;SDS011;10249;48.900;9.090;2022-12-13T11:17:18;15.27;;;14.57;;
20179;SDS011;10249;48.900;9.090;2022-12-13T11:19:47;15.77;;;14.97;;
20179;SDS011;10249;48.900;9.090;2022-12-13T11:22:18;15.20;;;14.50;;
20179;SDS011;10249;48.900;9.090;2022-12-13T11:24:48;18.47;;;17.67;;
20179;SDS011;10249;48.900;9.090;2022-12-13T11:27:23;15.27;;;14.57;;
20179;SDS011;10249;48.900;9.090;2022-12-13T11:30:00;15.37;;;14.67;;
20179;SDS011;10249;48.900;9.090;2022-12-13T11:32:33;16.50;;;15.80;;
20179;SDS011;10249;48.900;9.090;2022-12-13T11:35:03;16.27;;;15.57;;
20179;SDS011;10249;48.900;9.090;2022-12-13T11:37:36;16.83;;;16.03;;
20179;SDS011;10249;48.900;9.090;2022-12-13T11:40:08;16.00;;;15.30;;
20179;SDS011;10249;48.900;9.090;2022-12-13T11:42:39;15.77;;;15.07;;
20179;SDS011;10249;48.900;9.090;2022-12-13T11:45:10;15.33;;;14.73;;
20179;SDS011;10249;48.900;9.090;2022-12-13T11:47:38;16.30;;;15.60;;
20179;SDS011;10249;48.900;9.090;2022-12-13T11:50:12;16.20;;;15.50;;
20179;SDS011;10249;48.900;9.090;2022-12-13T11:52:40;15.77;;;15.07;;
20179;SDS011;10249;48.900;9.090;2022-12-13T11:55:10;15.73;;;15.10;;
20179;SDS011;10249;48.900;9.090;2022-12-13T11:57:43;15.87;;;15.17;;
20179;SDS011;10249;48.900;9.090;2022-12-13T12:00:17;16.47;;;15.77;;
20179;SDS011;10249;48.900;9.090;2022-12-13T12:02:48;16.00;;;15.30;;
20179;SDS011;10249;48.900;9.090;2022-12-13T12:05:20;15.57;;;14.97;;
20179;SDS011;10249;48.900;9.090;2022-12-13T12:07:49;15.13;;;14.53;;
20179;SDS011;10249;48.900;9.090;2022-12-13T12:10:22;16.03;;;15.33;;
20179;SDS011;10249;48.900;9.090;2022-12-13T12:12:52;15.60;;;15.00;;
20179;SDS011;10249;48.900;9.090;2022-12-13T12:15:22;15.87;;;15.17;;
20179;SDS011;10249;48.900;9.090;2022-12-13T12:17:51;16.40;;;15.70;;
20179;SDS011;10249;48.900;9.090;2022-12-13T12:20:19;17.40;;;16.43;;
20179;SDS011;10249;48.900;9.090;2022-12-13T12:22:49;16.77;;;15.97;;
20179;SDS011;10249;48.900;9.090;2022-12-13T12:25:22;16.37;;;15.67;;
20179;SDS011;10249;48.900;9.090;2022-12-13T12:27:54;17.93;;;16.67;;
20179;SDS011;10249;48.900;9.090;2022-12-13T12:30:24;15.43;;;14.73;;
20179;SDS011;10249;48.900;9.090;2022-12-13T12:32:58;15.90;;;15.20;;
20179;SDS011;10249;48.900;9.090;2022-12-13T12:35:33;16.00;;;15.30;;
20179;SDS011;10249;48.900;9.090;2022-12-13T12:38:08;16.57;;;15.87;;
20179;SDS011;10249;48.900;9.090;2022-12-13T12:40:45;17.67;;;16.80;;
20179;SDS011;10249;48.900;9.090;2022-12-13T12:43:19;16.57;;;15.77;;
20179;SDS011;10249;48.900;9.090;2022-12-13T12:45:53;16.57;;;15.87;;
20179;SDS011;10249;48.900;9.090;2022-12-13T12:48:27;16.23;;;15.53;;
20179;SDS011;10249;48.900;9.090;2022-12-13T12:50:58;17.17;;;16.37;;
20179;SDS011;10249;48.900;9.090;2022-12-13T12:53:33;16.40;;;15.70;;
20179;SDS011;10249;48.900;9.090;2022-12-13T12:56:16;16.50;;;15.80;;
20179;SDS011;10249;48.900;9.090;2022-12-13T12:58:49;16.03;;;15.33;;
20179;SDS011;10249;48.900;9.090;2022-12-13T13:01:23;17.87;;;17.07;;
20179;SDS011;10249;48.900;9.090;2022-12-13T13:03:52;16.67;;;15.97;;
20179;SDS011;10249;48.900;9.090;2022-12-13T13:06:22;16.50;;;15.80;;
20179;SDS011;10249;48.900;9.090;2022-12-13T13:08:50;16.20;;;15.50;;
20179;SDS011;10249;48.900;9.090;2022-12-13T13:11:20;16.90;;;16.10;;
20179;SDS011;10249;48.900;9.090;2022-12-13T13:13:59;16.63;;;15.83;;
20179;SDS011;10249;48.900;9.090;2022-12-13T13:16:34;16.93;;;16.13;;
20179;SDS011;10249;48.900;9.090;2022-12-13T13:19:02;17.27;;;16.47;;
20179;SDS011;10249;48.900;9.090;2022-12-13T13:21:34;17.83;;;17.03;;
20179;SDS011;10249;48.900;9.090;2022-12-13T13:24:14;17.73;;;16.73;;
20179;SDS011;10249;48.900;9.090;2022-12-13T13:26:42;18.00;;;17.10;;
20179;SDS011;10249;48.900;9.090;2022-12-13T13:29:30;16.90;;;16.10;;
20179;SDS011;10249;48.900;9.090;2022-12-13T13:32:00;16.93;;;16.13;;
20179;SDS011;10249;48.900;9.090;2022-12-13T13:34:29;16.90;;;16.10;;
20179;SDS011;10249;48.900;9.090;2022-12-13T13:36:57;19.00;;;18.00;;
20179;SDS011;10249;48.900;9.090;2022-12-13T13:39:37;17.10;;;16.30;;
20179;SDS011;10249;48.900;9.090;2022-12-13T13:42:20;17.47;;;16.67;;
20179;SDS011;10249;48.900;9.090;2022-12-13T13:47:40;17.47;;;16.67;;
20179;SDS011;10249;48.900;9.090;2022-12-13T13:52:56;16.97;;;16.17;;
20179;SDS011;10249;48.900;9.090;2022-12-13T13:55:35;17.80;;;16.90;;
20179;SDS011;10249;48.900;9.090;2022-12-13T13:58:25;17.10;;;16.30;;
20179;SDS011;10249;48.900;9.090;2022-12-13T14:03:52;16.60;;;15.80;;
20179;SDS011;10249;48.900;9.090;2022-12-13T14:09:22;16.80;;;16.00;;
20179;SDS011;10249;48.900;9.090;2022-12-13T14:12:04;17.47;;;16.67;;
20179;SDS011;10249;48.900;9.090;2022-12-13T14:14:42;16.27;;;15.47;;
20179;SDS011;10249;48.900;9.090;2022-12-13T14:17:22;17.40;;;16.60;;
20179;SDS011;10249;48.900;9.090;2022-12-13T14:22:56;15.53;;;14.83;;
20179;SDS011;10249;48.900;9.090;2022-12-13T14:25:40;15.97;;;15.27;;
20179;SDS011;10249;48.900;9.090;2022-12-13T14:28:10;15.80;;;15.10;;
20179;SDS011;10249;48.900;9.090;2022-12-13T14:30:40;17.00;;;16.20;;
20179;SDS011;10249;48.900;9.090;2022-12-13T14:33:10;16.03;;;15.33;;
20179;SDS011;10249;48.900;9.090;2022-12-13T14:35:48;18.70;;;17.53;;
20179;SDS011;10249;48.900;9.090;2022-12-13T14:38:19;16.27;;;15.53;;
20179;SDS011;10249;48.900;9.090;2022-12-13T14:40:47;16.73;;;15.93;;
20179;SDS011;10249;48.900;9.090;2022-12-13T14:43:20;16.20;;;15.47;;
20179;SDS011;10249;48.900;9.090;2022-12-13T14:45:50;16.17;;;15.47;;
20179;SDS011;10249;48.900;9.090;2022-12-13T14:48:18;15.80;;;15.10;;
20179;SDS011;10249;48.900;9.090;2022-12-13T14:50:45;16.10;;;15.40;;
20179;SDS011;10249;48.900;9.090;2022-12-13T14:53:20;15.80;;;15.10;;
20179;SDS011;10249;48.900;9.090;2022-12-13T14:56:00;15.80;;;15.10;;